Time;durP1;ratioP1;P1;durP2;ratioP2;P2;SDS_P1;SDS_P2;PMS_P1;PMS_P2;Temp;Humidity;BMP_temperature;BMP_pressure;BME280_temperature;BME280_humidity;BME280_pressure;Samples;Min_cycle;Max_cycle;Signal;HPM_P1;HPM_P2
2023/04/28 00:00:35;;;;;;;8.43;5.53;;;9.60;99.90;;;;;;4933274;29;20225;-76
2023/04/28 00:03:02;;;;;;;9.20;5.70;;;9.60;99.90;;;;;;4933709;29;20241;-76
2023/04/28 00:05:29;;;;;;;9.87;6.83;;;9.50;99.90;;;;;;4934193;29;20753;-76
2023/04/28 00:07:57;;;;;;;10.00;6.20;;;9.50;99.90;;;;;;4932624;29;20313;-75
2023/04/28 00:10:25;;;;;;;9.73;6.33;;;9.50;99.90;;;;;;4933391;29;20654;-75
2023/04/28 00:12:51;;;;;;;8.27;6.07;;;9.50;99.90;;;;;;4935549;29;20284;-76
2023/04/28 00:15:18;;;;;;;10.17;5.83;;;9.40;99.90;;;;;;4916272;29;20271;-76
2023/04/28 00:17:45;;;;;;;15.10;6.70;;;9.40;99.90;;;;;;4916506;29;20202;-74
2023/04/28 00:20:12;;;;;;;9.80;6.50;;;9.50;99.90;;;;;;4932952;29;20276;-76
2023/04/28 00:22:39;;;;;;;10.37;6.33;;;9.40;99.90;;;;;;4932933;29;20202;-76
2023/04/28 00:25:07;;;;;;;12.03;6.83;;;9.40;99.90;;;;;;4933797;29;20213;-75
2023/04/28 00:27:34;;;;;;;10.17;6.57;;;9.30;99.90;;;;;;4932993;29;20289;-76
2023/04/28 00:30:01;;;;;;;8.83;6.77;;;9.30;99.90;;;;;;4932434;29;20272;-76
2023/04/28 00:32:28;;;;;;;10.83;5.83;;;9.30;99.90;;;;;;4932524;29;20213;-76
2023/04/28 00:34:56;;;;;;;8.93;6.00;;;9.30;99.90;;;;;;4932381;29;20269;-75
2023/04/28 00:37:23;;;;;;;9.97;6.80;;;9.30;99.90;;;;;;4929840;29;20299;-76
2023/04/28 00:39:54;;;;;;;9.90;6.60;;;9.30;99.90;;;;;;4932061;29;20214;-75
2023/04/28 00:42:21;;;;;;;9.07;6.23;;;9.30;99.90;;;;;;4916065;29;20959;-76
2023/04/28 00:44:48;;;;;;;8.87;6.53;;;9.30;99.90;;;;;;4933540;29;20329;-75
2023/04/28 00:47:17;;;;;;;10.33;6.73;;;9.30;99.90;;;;;;4932337;29;20249;-76
2023/04/28 00:49:44;;;;;;;11.33;6.77;;;9.30;99.90;;;;;;4915930;29;20268;-76
2023/04/28 00:52:11;;;;;;;10.20;6.47;;;9.30;99.90;;;;;;4932397;29;20259;-76
2023/04/28 00:54:38;;;;;;;9.67;5.90;;;9.20;99.90;;;;;;4932657;29;20291;-76
2023/04/28 00:57:05;;;;;;;10.17;6.53;;;9.20;99.90;;;;;;4931840;29;20597;-75
2023/04/28 00:59:32;;;;;;;9.77;6.53;;;9.20;99.90;;;;;;4931805;29;20237;-76
2023/04/28 01:02:00;;;;;;;8.03;6.17;;;9.10;99.90;;;;;;4932741;29;20219;-76
2023/04/28 01:04:28;;;;;;;10.17;6.43;;;9.20;99.90;;;;;;4935123;29;20240;-76
2023/04/28 01:06:56;;;;;;;10.70;7.00;;;9.20;99.90;;;;;;4933671;29;20260;-77
2023/04/28 01:09:23;;;;;;;11.10;6.57;;;9.20;99.90;;;;;;4932382;29;20244;-77
2023/04/28 01:11:51;;;;;;;11.93;6.70;;;9.10;99.90;;;;;;4932442;29;20209;-76
2023/04/28 01:14:17;;;;;;;11.37;7.23;;;9.10;99.90;;;;;;4932663;29;20319;-76
2023/04/28 01:16:44;;;;;;;9.90;7.00;;;9.00;99.90;;;;;;4931700;29;20713;-76
2023/04/28 01:19:20;;;;;;;9.33;6.50;;;9.00;99.90;;;;;;4931972;29;20204;-76
2023/04/28 01:21:47;;;;;;;12.40;6.87;;;9.00;99.90;;;;;;4935668;29;20212;-76
2023/04/28 01:24:15;;;;;;;13.53;7.23;;;8.90;99.90;;;;;;4932019;29;20211;-76
2023/04/28 01:26:44;;;;;;;10.73;6.90;;;8.90;99.90;;;;;;4932161;29;20376;-75
2023/04/28 01:29:12;;;;;;;12.20;6.40;;;8.90;99.90;;;;;;4932229;29;20236;-76
2023/04/28 01:31:39;;;;;;;8.43;6.93;;;8.80;99.90;;;;;;4912741;29;20749;-76
2023/04/28 01:34:07;;;;;;;10.20;6.70;;;8.80;99.90;;;;;;4932070;29;20212;-76
2023/04/28 01:36:34;;;;;;;11.30;7.07;;;8.80;99.90;;;;;;4931426;29;20247;-76
2023/04/28 01:39:04;;;;;;;10.73;6.93;;;8.80;99.90;;;;;;4932537;29;20247;-76
2023/04/28 01:41:33;;;;;;;11.03;7.50;;;8.70;99.90;;;;;;4933894;29;20229;-76
2023/04/28 01:44:00;;;;;;;10.73;7.43;;;8.60;99.90;;;;;;4932285;29;20298;-76
2023/04/28 01:46:27;;;;;;;12.60;7.17;;;8.70;99.90;;;;;;4915708;29;20648;-76
2023/04/28 01:48:54;;;;;;;11.23;6.63;;;8.60;99.90;;;;;;4935151;29;20219;-76
2023/04/28 01:51:21;;;;;;;14.63;7.53;;;8.50;99.90;;;;;;4936224;29;20292;-76
2023/04/28 01:53:47;;;;;;;12.50;7.33;;;8.60;99.90;;;;;;4935507;29;20235;-75
2023/04/28 01:56:14;;;;;;;11.47;7.53;;;8.40;99.90;;;;;;4935597;29;20239;-75
2023/04/28 01:58:41;;;;;;;12.03;7.23;;;8.40;99.90;;;;;;4935000;29;20239;-76
2023/04/28 02:01:08;;;;;;;23.67;7.70;;;8.40;99.90;;;;;;4935108;29;20262;-76
2023/04/28 02:03:34;;;;;;;12.87;7.03;;;8.30;99.90;;;;;;4937697;29;20622;-76
2023/04/28 02:06:02;;;;;;;8.57;6.83;;;8.30;99.90;;;;;;4935848;29;20215;-75
2023/04/28 02:08:30;;;;;;;11.27;6.97;;;8.40;99.90;;;;;;4935475;29;20578;-75
2023/04/28 02:10:57;;;;;;;11.33;7.27;;;8.40;99.90;;;;;;4935600;29;20302;-75
2023/04/28 02:13:24;;;;;;;10.30;6.60;;;8.40;99.90;;;;;;4920559;29;20235;-77
2023/04/28 02:15:50;;;;;;;11.63;7.47;;;8.30;99.90;;;;;;4935190;29;20331;-76
2023/04/28 02:18:17;;;;;;;11.73;7.33;;;8.40;99.90;;;;;;4934478;29;20201;-75
2023/04/28 02:20:44;;;;;;;11.57;7.47;;;8.40;99.90;;;;;;4935018;29;20315;-77
2023/04/28 02:23:11;;;;;;;10.53;7.23;;;8.50;99.90;;;;;;4938464;29;20263;-76
2023/04/28 02:25:37;;;;;;;13.57;7.23;;;8.50;99.90;;;;;;4935102;29;20661;-75
2023/04/28 02:28:04;;;;;;;10.87;7.17;;;8.50;99.90;;;;;;4935039;29;20197;-77
2023/04/28 02:30:31;;;;;;;10.77;7.57;;;8.60;99.90;;;;;;4935305;29;20314;-78
2023/04/28 02:32:58;;;;;;;9.97;7.00;;;8.60;99.90;;;;;;4934688;29;20209;-75
2023/04/28 02:35:26;;;;;;;10.20;7.33;;;8.70;99.90;;;;;;4934651;29;20259;-76
2023/04/28 02:37:53;;;;;;;12.70;8.13;;;8.70;99.90;;;;;;4934395;29;20208;-76
2023/04/28 02:40:20;;;;;;;12.87;7.93;;;8.70;99.90;;;;;;4934924;29;20220;-76
2023/04/28 02:42:47;;;;;;;9.97;7.70;;;8.70;99.90;;;;;;4935142;29;20221;-77
2023/04/28 02:45:13;;;;;;;12.70;7.47;;;8.80;99.90;;;;;;4936028;29;20323;-77
2023/04/28 02:47:40;;;;;;;12.50;7.40;;;8.80;99.90;;;;;;4934817;29;20299;-76
2023/04/28 02:50:08;;;;;;;16.17;8.20;;;8.80;99.90;;;;;;4917196;29;20205;-76
2023/04/28 02:52:35;;;;;;;17.23;9.53;;;8.80;99.90;;;;;;4935378;29;20248;-76
2023/04/28 02:55:03;;;;;;;11.77;7.63;;;8.80;99.90;;;;;;4937210;29;20217;-77
2023/04/28 02:57:30;;;;;;;11.17;8.80;;;8.80;99.90;;;;;;4934062;29;20746;-76
2023/04/28 02:59:57;;;;;;;14.50;8.13;;;8.80;99.90;;;;;;4935626;29;20646;-76
2023/04/28 03:02:23;;;;;;;10.70;7.70;;;8.90;99.90;;;;;;4934463;29;20681;-75
2023/04/28 03:04:50;;;;;;;12.17;7.93;;;8.90;99.90;;;;;;4934696;29;20684;-76
2023/04/28 03:07:17;;;;;;;10.77;7.60;;;8.80;99.90;;;;;;4934005;29;20236;-77
2023/04/28 03:09:45;;;;;;;11.10;8.03;;;8.90;99.90;;;;;;4925771;29;20311;-76
2023/04/28 03:12:12;;;;;;;10.87;8.07;;;8.90;99.90;;;;;;4933970;29;20299;-77
2023/04/28 03:14:41;;;;;;;11.80;8.30;;;8.90;99.90;;;;;;4939523;29;20758;-78
2023/04/28 03:17:08;;;;;;;12.50;8.23;;;8.90;99.90;;;;;;4919065;29;20322;-77
2023/04/28 03:19:35;;;;;;;13.60;8.40;;;8.90;99.90;;;;;;4933653;29;20669;-76
2023/04/28 03:22:04;;;;;;;13.27;7.73;;;8.90;99.90;;;;;;4933782;29;20213;-76
2023/04/28 03:24:31;;;;;;;14.47;8.23;;;8.90;99.90;;;;;;4933815;29;20208;-78
2023/04/28 03:26:58;;;;;;;11.67;8.40;;;9.00;99.90;;;;;;4932930;29;20205;-76
2023/04/28 03:29:25;;;;;;;11.60;8.20;;;9.00;99.90;;;;;;4926996;29;20308;-78
2023/04/28 03:31:52;;;;;;;9.83;7.90;;;9.00;99.90;;;;;;4933983;29;20280;-76
2023/04/28 03:34:19;;;;;;;13.40;7.57;;;9.00;99.90;;;;;;4934452;29;20756;-75
2023/04/28 03:36:45;;;;;;;12.13;8.07;;;9.00;99.90;;;;;;4933428;29;20263;-76
2023/04/28 03:39:12;;;;;;;10.53;7.43;;;9.00;99.90;;;;;;4936250;29;20264;-76
2023/04/28 03:41:39;;;;;;;13.70;7.90;;;9.00;99.90;;;;;;4934152;29;20240;-77
2023/04/28 03:44:06;;;;;;;10.10;6.93;;;8.90;99.90;;;;;;4933765;29;20229;-77
2023/04/28 03:46:33;;;;;;;14.53;7.93;;;9.00;99.90;;;;;;4915569;29;20293;-77
2023/04/28 03:49:03;;;;;;;12.10;7.60;;;9.10;99.90;;;;;;4933845;29;20636;-76
2023/04/28 03:51:31;;;;;;;9.63;7.20;;;9.00;99.90;;;;;;4933404;29;20197;-76
2023/04/28 03:53:58;;;;;;;12.27;7.90;;;9.00;99.90;;;;;;4933687;29;20247;-77
2023/04/28 03:56:24;;;;;;;14.67;7.30;;;8.90;99.90;;;;;;4929742;29;20284;-76
2023/04/28 03:58:51;;;;;;;13.97;7.20;;;8.90;99.90;;;;;;4904635;29;20240;-76
2023/04/28 04:01:18;;;;;;;12.13;7.43;;;9.00;99.90;;;;;;4914463;29;20569;-76
2023/04/28 04:03:45;;;;;;;12.27;7.30;;;9.00;99.90;;;;;;4914377;29;20214;-77
2023/04/28 04:06:12;;;;;;;14.97;8.37;;;9.10;99.90;;;;;;4916631;29;20656;-76
2023/04/28 04:08:39;;;;;;;8.67;6.83;;;9.10;99.90;;;;;;4914256;29;20252;-76
2023/04/28 04:11:06;;;;;;;11.80;6.87;;;9.20;99.90;;;;;;4914417;29;20304;-76
2023/04/28 04:13:33;;;;;;;9.83;6.80;;;9.20;99.90;;;;;;4917560;29;20213;-76
2023/04/28 04:16:01;;;;;;;11.23;7.17;;;9.20;99.90;;;;;;4913608;29;20237;-77
2023/04/28 04:18:28;;;;;;;13.70;6.87;;;9.20;99.90;;;;;;4914695;29;20202;-76
2023/04/28 04:20:56;;;;;;;12.07;7.60;;;9.20;99.90;;;;;;4913907;29;20364;-76
2023/04/28 04:23:23;;;;;;;9.43;7.20;;;9.20;99.90;;;;;;4896845;29;20226;-76
2023/04/28 04:25:50;;;;;;;13.50;7.63;;;9.10;99.90;;;;;;4913987;29;20281;-76
2023/04/28 04:28:16;;;;;;;13.90;7.10;;;9.10;99.90;;;;;;4914386;29;20297;-76
2023/04/28 04:30:43;;;;;;;16.20;6.53;;;9.00;99.90;;;;;;4913369;29;20232;-75
2023/04/28 04:33:11;;;;;;;10.90;6.60;;;9.00;99.90;;;;;;4914061;29;20329;-76
2023/04/28 04:35:38;;;;;;;10.40;7.07;;;9.10;99.90;;;;;;4914944;29;20553;-76
2023/04/28 04:38:06;;;;;;;12.37;7.63;;;9.10;99.90;;;;;;4913464;29;20684;-74
2023/04/28 04:40:32;;;;;;;12.60;7.20;;;9.20;99.90;;;;;;4912613;29;20206;-76
2023/04/28 04:43:00;;;;;;;11.00;7.20;;;9.20;99.90;;;;;;4897276;29;20224;-77
2023/04/28 04:45:27;;;;;;;12.53;7.13;;;9.20;99.90;;;;;;4913826;29;20649;-76
2023/04/28 04:47:53;;;;;;;9.53;6.93;;;9.30;99.90;;;;;;4912117;29;20633;-75
2023/04/28 04:50:20;;;;;;;11.43;7.47;;;9.30;99.90;;;;;;4897321;29;20919;-76
2023/04/28 04:52:47;;;;;;;10.03;7.07;;;9.30;99.90;;;;;;4912460;29;20725;-76
2023/04/28 04:55:14;;;;;;;11.33;6.70;;;9.40;99.90;;;;;;4913609;29;20241;-76
2023/04/28 04:57:41;;;;;;;10.43;7.07;;;9.40;99.90;;;;;;4896271;29;20236;-79
2023/04/28 05:00:08;;;;;;;10.57;6.90;;;9.50;99.90;;;;;;4913522;29;20257;-74
2023/04/28 05:02:35;;;;;;;9.93;6.67;;;9.50;99.90;;;;;;4913936;29;20210;-77
2023/04/28 05:05:02;;;;;;;9.73;6.50;;;9.60;99.90;;;;;;4907151;29;20209;-80
2023/04/28 05:07:46;;;;;;;14.17;6.70;;;9.60;99.90;;;;;;4912741;29;20215;-77
2023/04/28 05:10:13;;;;;;;10.67;6.77;;;9.50;99.90;;;;;;4914272;29;20351;-76
2023/04/28 05:12:40;;;;;;;10.67;6.80;;;9.60;99.90;;;;;;4909431;29;20274;-76
2023/04/28 05:15:07;;;;;;;9.50;6.23;;;9.60;99.90;;;;;;4909516;29;20222;-75
2023/04/28 05:17:34;;;;;;;12.60;6.33;;;9.70;99.90;;;;;;4909237;29;20226;-77
2023/04/28 05:20:01;;;;;;;12.43;6.53;;;9.70;99.90;;;;;;4908902;29;20284;-76
2023/04/28 05:22:29;;;;;;;9.20;6.70;;;9.80;99.90;;;;;;4911317;29;20618;-76
2023/04/28 05:24:56;;;;;;;10.53;6.67;;;9.80;99.90;;;;;;4907879;29;20253;-76
2023/04/28 05:27:23;;;;;;;8.77;6.37;;;9.80;99.90;;;;;;4912263;29;20585;-76
2023/04/28 05:29:50;;;;;;;8.13;6.27;;;9.90;99.90;;;;;;4912416;29;20277;-76
2023/04/28 05:32:16;;;;;;;12.60;6.47;;;9.90;99.90;;;;;;4913529;29;20237;-76
2023/04/28 05:34:43;;;;;;;10.17;6.97;;;9.90;99.90;;;;;;4908986;29;20298;-75
2023/04/28 05:37:10;;;;;;;9.60;7.07;;;9.90;99.90;;;;;;4915506;29;20231;-77
2023/04/28 05:39:37;;;;;;;11.00;7.07;;;9.90;99.90;;;;;;4913493;29;20209;-75
2023/04/28 05:42:04;;;;;;;12.00;7.20;;;10.00;99.90;;;;;;4917177;29;20264;-76
2023/04/28 05:44:30;;;;;;;11.73;6.63;;;10.00;99.90;;;;;;4912293;29;20217;-75
2023/04/28 05:46:57;;;;;;;12.37;6.97;;;10.00;99.90;;;;;;4914293;29;20309;-74
2023/04/28 05:49:24;;;;;;;12.10;7.30;;;10.00;99.90;;;;;;4911497;29;20722;-76
2023/04/28 05:51:51;;;;;;;13.57;8.47;;;10.00;99.90;;;;;;4914124;29;20218;-75
2023/04/28 05:54:18;;;;;;;11.37;7.67;;;10.10;99.90;;;;;;4911016;29;20228;-76
2023/04/28 05:56:45;;;;;;;9.40;7.17;;;10.10;99.90;;;;;;4896747;29;20238;-78
2023/04/28 05:59:11;;;;;;;11.63;8.03;;;10.00;99.90;;;;;;4909600;28;20812;-76
2023/04/28 06:01:38;;;;;;;11.47;7.80;;;10.00;99.90;;;;;;4914064;29;20296;-76
2023/04/28 06:04:05;;;;;;;12.50;7.87;;;9.90;99.90;;;;;;4915008;29;20635;-76
2023/04/28 06:06:33;;;;;;;10.57;7.50;;;9.80;99.90;;;;;;4915727;29;20213;-77
2023/04/28 06:09:01;;;;;;;14.00;7.67;;;9.80;99.90;;;;;;4910181;29;20213;-76
2023/04/28 06:11:28;;;;;;;10.87;7.83;;;9.80;99.90;;;;;;4911280;29;20207;-78
2023/04/28 06:13:55;;;;;;;12.33;7.60;;;9.80;99.90;;;;;;4910829;29;20572;-77
2023/04/28 06:16:22;;;;;;;10.63;7.57;;;9.80;99.90;;;;;;4913842;29;20226;-76
2023/04/28 06:18:49;;;;;;;10.33;7.80;;;9.80;99.90;;;;;;4911939;29;20627;-76
2023/04/28 06:21:16;;;;;;;12.93;8.07;;;9.80;99.90;;;;;;4913815;29;20194;-77
2023/04/28 06:23:43;;;;;;;14.30;8.83;;;9.90;99.90;;;;;;4894316;29;20210;-76
2023/04/28 06:26:10;;;;;;;13.93;9.03;;;9.90;99.90;;;;;;4916464;29;20198;-77
2023/04/28 06:28:36;;;;;;;13.73;9.43;;;9.90;99.90;;;;;;4913347;29;20202;-76
2023/04/28 06:31:03;;;;;;;14.87;9.17;;;9.90;99.90;;;;;;4912920;29;20227;-79
2023/04/28 06:33:31;;;;;;;12.00;8.87;;;9.90;99.90;;;;;;4911858;29;20202;-78
2023/04/28 06:35:58;;;;;;;11.17;8.53;;;9.90;99.90;;;;;;4914261;29;20221;-80
2023/04/28 06:38:25;;;;;;;12.67;8.83;;;9.90;99.90;;;;;;4917732;29;20216;-79
2023/04/28 06:40:52;;;;;;;13.93;9.13;;;9.90;99.90;;;;;;4900309;29;20212;-79
2023/04/28 06:43:19;;;;;;;11.60;9.00;;;9.80;99.90;;;;;;4915970;29;20305;-78
2023/04/28 06:45:45;;;;;;;13.87;9.30;;;9.80;99.90;;;;;;4900689;29;20566;-77
2023/04/28 06:48:12;;;;;;;15.70;10.17;;;9.80;99.90;;;;;;4912431;29;20257;-79
2023/04/28 06:50:39;;;;;;;19.10;9.97;;;9.80;99.90;;;;;;4913228;29;20205;-77
2023/04/28 06:53:09;;;;;;;18.23;9.87;;;9.70;99.90;;;;;;4916335;29;20223;-77
2023/04/28 06:55:35;;;;;;;16.70;10.73;;;9.50;99.90;;;;;;4912931;29;20222;-77
2023/04/28 06:58:02;;;;;;;18.93;10.67;;;9.40;99.90;;;;;;4902640;29;20689;-78
2023/04/28 07:00:29;;;;;;;19.17;12.03;;;9.40;99.90;;;;;;4933455;29;20300;-77
2023/04/28 07:02:56;;;;;;;22.03;12.90;;;9.30;99.90;;;;;;4937087;29;20205;-79
2023/04/28 07:05:23;;;;;;;23.60;13.67;;;9.30;99.90;;;;;;4933699;29;20212;-77
2023/04/28 07:07:50;;;;;;;19.03;12.63;;;9.40;99.90;;;;;;4936771;29;20213;-77
2023/04/28 07:10:17;;;;;;;23.13;13.90;;;9.50;99.90;;;;;;4931925;29;20236;-77
2023/04/28 07:12:44;;;;;;;25.00;14.50;;;9.60;99.90;;;;;;4935695;29;20207;-77
2023/04/28 07:15:11;;;;;;;22.70;15.40;;;9.70;99.90;;;;;;4932114;29;20225;-76
2023/04/28 07:17:38;;;;;;;24.30;14.50;;;9.90;99.90;;;;;;4937000;29;20236;-77
2023/04/28 07:20:06;;;;;;;20.23;13.03;;;10.10;99.90;;;;;;4934505;29;20213;-77
2023/04/28 07:22:33;;;;;;;20.97;14.20;;;10.30;99.90;;;;;;4936623;29;20730;-77
2023/04/28 07:24:59;;;;;;;22.70;14.13;;;10.30;99.90;;;;;;4914388;29;20837;-76
2023/04/28 07:27:26;;;;;;;22.10;14.90;;;10.30;99.90;;;;;;4916644;29;20241;-77
2023/04/28 07:29:53;;;;;;;25.03;15.80;;;10.30;99.90;;;;;;4932412;29;20221;-77
2023/04/28 07:32:21;;;;;;;25.83;16.27;;;10.40;99.90;;;;;;4937049;29;20229;-78
2023/04/28 07:34:47;;;;;;;29.50;16.23;;;10.40;99.90;;;;;;4930337;29;20202;-76
2023/04/28 07:37:15;;;;;;;27.70;17.90;;;10.50;99.90;;;;;;4937521;29;20652;-78
2023/04/28 07:39:41;;;;;;;26.87;15.93;;;10.50;99.90;;;;;;4915640;29;20207;-77
2023/04/28 07:42:09;;;;;;;24.57;16.97;;;10.60;99.90;;;;;;4938371;29;20212;-77
2023/04/28 07:44:36;;;;;;;27.00;17.07;;;10.70;99.90;;;;;;4932907;29;20215;-77
2023/04/28 07:47:03;;;;;;;25.47;17.63;;;10.80;99.90;;;;;;4937313;29;20257;-78
2023/04/28 07:49:30;;;;;;;25.13;16.97;;;10.80;99.90;;;;;;4931545;29;20651;-77
2023/04/28 07:51:57;;;;;;;24.67;17.57;;;11.00;99.90;;;;;;4934873;29;20688;-78
2023/04/28 07:54:24;;;;;;;27.60;18.97;;;11.10;99.90;;;;;;4928668;29;20215;-77
2023/04/28 07:56:51;;;;;;;30.53;18.53;;;11.10;99.90;;;;;;4933047;29;20627;-78
2023/04/28 07:59:18;;;;;;;25.87;17.03;;;11.30;99.90;;;;;;4932495;29;20266;-78
2023/04/28 08:01:46;;;;;;;26.77;17.47;;;11.40;99.90;;;;;;4940299;29;20669;-76
2023/04/28 08:04:13;;;;;;;29.50;17.80;;;11.70;99.90;;;;;;4931693;29;20225;-77
2023/04/28 08:06:40;;;;;;;24.10;16.83;;;11.90;99.90;;;;;;4916312;29;20209;-79
2023/04/28 08:09:07;;;;;;;23.67;17.03;;;12.00;99.90;;;;;;4932647;29;20244;-78
2023/04/28 08:11:34;;;;;;;25.53;17.37;;;12.00;99.90;;;;;;4934874;29;20292;-79
2023/04/28 08:14:01;;;;;;;24.40;15.47;;;12.10;99.90;;;;;;4933081;29;20254;-77
2023/04/28 08:16:30;;;;;;;29.80;17.60;;;12.20;99.90;;;;;;4933643;29;20207;-77
2023/04/28 08:18:58;;;;;;;23.63;16.60;;;12.20;99.90;;;;;;4916320;29;20288;-77
2023/04/28 08:21:25;;;;;;;24.87;18.13;;;12.30;99.90;;;;;;4934332;29;20236;-79
2023/04/28 08:23:52;;;;;;;29.10;17.10;;;12.40;99.90;;;;;;4932119;29;20201;-78
2023/04/28 08:26:20;;;;;;;25.27;16.27;;;12.50;99.90;;;;;;4919455;29;20693;-78
2023/04/28 08:28:47;;;;;;;28.13;17.27;;;12.70;99.90;;;;;;4934646;29;20202;-77
2023/04/28 08:31:13;;;;;;;23.73;16.67;;;12.80;99.90;;;;;;4935181;29;20260;-78
2023/04/28 08:33:43;;;;;;;23.37;16.30;;;12.90;99.90;;;;;;4932933;29;20209;-77
2023/04/28 08:36:16;;;;;;;24.17;16.67;;;13.10;99.90;;;;;;4933888;29;20264;-78
2023/04/28 08:38:44;;;;;;;25.10;16.37;;;13.20;99.90;;;;;;4933808;29;20229;-76
2023/04/28 08:41:14;;;;;;;27.80;17.50;;;13.30;99.90;;;;;;4930503;29;20213;-79
2023/04/28 08:43:42;;;;;;;23.97;16.43;;;13.40;99.90;;;;;;4933116;29;20248;-79
2023/04/28 08:46:09;;;;;;;27.70;16.23;;;13.40;99.90;;;;;;4931983;29;20227;-77
2023/04/28 08:48:44;;;;;;;25.93;17.13;;;13.60;99.90;;;;;;4913984;29;20574;-78
2023/04/28 08:51:27;;;;;;;30.77;17.47;;;13.80;99.90;;;;;;4930955;29;20219;-78
2023/04/28 08:53:56;;;;;;;23.00;15.70;;;13.80;99.90;;;;;;4933921;29;20716;-78
2023/04/28 08:56:44;;;;;;;24.17;16.13;;;14.00;99.90;;;;;;4933271;29;20201;-79
2023/04/28 08:59:14;;;;;;;24.67;16.57;;;14.00;99.90;;;;;;4932230;29;20612;-78
2023/04/28 09:01:41;;;;;;;25.13;17.13;;;14.10;99.90;;;;;;4932474;29;20205;-77
2023/04/28 09:04:09;;;;;;;24.60;16.53;;;14.10;99.90;;;;;;4932857;29;20517;-77
2023/04/28 09:06:40;;;;;;;23.43;17.27;;;14.10;99.90;;;;;;4932371;29;20378;-78
2023/04/28 09:09:20;;;;;;;24.80;17.17;;;14.10;99.90;;;;;;4927985;29;20633;-79
2023/04/28 09:11:54;;;;;;;24.70;17.33;;;14.10;99.90;;;;;;4932298;29;20674;-79
2023/04/28 09:14:22;;;;;;;24.17;17.77;;;14.10;99.90;;;;;;4919201;29;20217;-77
2023/04/28 09:16:50;;;;;;;27.00;19.67;;;14.20;99.90;;;;;;4932420;29;20260;-78
2023/04/28 09:19:18;;;;;;;28.60;20.37;;;14.20;99.90;;;;;;4921474;29;20261;-77
2023/04/28 09:21:47;;;;;;;28.33;19.57;;;14.20;99.90;;;;;;4911020;29;20202;-78
2023/04/28 09:24:34;;;;;;;32.20;19.70;;;14.20;99.90;;;;;;4932605;29;20221;-77
2023/04/28 09:27:06;;;;;;;26.53;18.87;;;14.20;99.90;;;;;;4932392;29;20300;-78
2023/04/28 09:29:34;;;;;;;27.63;19.17;;;14.20;99.90;;;;;;4932746;29;20292;-77
2023/04/28 09:32:18;;;;;;;28.63;21.13;;;14.20;99.90;;;;;;4933861;29;20225;-77
2023/04/28 09:34:50;;;;;;;32.30;20.57;;;14.10;99.90;;;;;;4935684;29;20271;-78
2023/04/28 09:37:22;;;;;;;31.17;21.40;;;14.20;99.90;;;;;;4917271;29;20299;-77
2023/04/28 09:39:51;;;;;;;28.80;20.83;;;14.30;99.90;;;;;;4932446;29;20654;-78
2023/04/28 09:42:35;;;;;;;29.90;21.47;;;14.30;99.90;;;;;;4931440;29;20572;-77
2023/04/28 09:45:06;;;;;;;32.63;21.67;;;14.30;99.90;;;;;;4928629;29;20229;-78
2023/04/28 09:47:35;;;;;;;28.20;21.63;;;14.30;99.90;;;;;;4934300;29;20205;-78
2023/04/28 09:50:05;;;;;;;33.47;21.10;;;14.40;99.90;;;;;;4935846;29;20213;-77
2023/04/28 09:52:36;;;;;;;29.27;20.47;;;14.40;99.90;;;;;;4933655;29;20217;-76
2023/04/28 09:55:05;;;;;;;31.53;20.93;;;14.50;99.90;;;;;;4932910;29;20292;-77
2023/04/28 09:57:34;;;;;;;31.10;20.97;;;14.50;99.90;;;;;;4931946;29;20772;-81
2023/04/28 10:00:05;;;;;;;32.50;23.57;;;14.50;99.90;;;;;;4932255;29;20272;-77
2023/04/28 10:02:36;;;;;;;34.63;23.80;;;14.50;99.90;;;;;;4932112;29;20213;-78
2023/04/28 10:05:08;;;;;;;33.80;23.90;;;14.50;99.90;;;;;;4932498;29;20252;-79
2023/04/28 10:07:37;;;;;;;51.60;23.30;;;14.50;99.90;;;;;;4932119;29;20236;-77
2023/04/28 10:10:06;;;;;;;29.73;23.07;;;14.50;99.90;;;;;;4934929;29;20580;-77
2023/04/28 10:12:36;;;;;;;36.67;25.13;;;14.50;99.90;;;;;;4937087;29;20655;-77
2023/04/28 10:15:06;;;;;;;36.33;25.63;;;14.50;99.90;;;;;;4936417;29;20686;-78
2023/04/28 10:17:35;;;;;;;34.57;25.33;;;14.40;99.90;;;;;;4935796;29;20247;-78
2023/04/28 10:20:04;;;;;;;42.77;28.63;;;14.50;99.90;;;;;;4935599;29;20300;-77
2023/04/28 10:23:08;;;;;;;40.70;28.77;;;14.70;99.90;;;;;;4935722;29;20236;-76
2023/04/28 10:25:37;;;;;;;41.70;29.93;;;14.70;99.90;;;;;;4935878;29;20209;-78
2023/04/28 10:28:07;;;;;;;40.63;30.70;;;14.70;99.90;;;;;;4935455;29;20625;-78
2023/04/28 10:30:37;;;;;;;41.77;30.60;;;14.70;99.90;;;;;;4926367;29;20217;-79
2023/04/28 10:33:13;;;;;;;41.90;30.77;;;14.70;99.90;;;;;;4929197;29;20224;-78
2023/04/28 10:35:46;;;;;;;47.20;32.63;;;14.70;99.90;;;;;;4930518;29;20209;-78
2023/04/28 10:38:18;;;;;;;44.80;30.87;;;14.70;99.90;;;;;;4929353;29;20229;-76
2023/04/28 10:40:59;;;;;;;40.53;30.70;;;14.80;99.90;;;;;;4929478;29;20205;-77
2023/04/28 10:43:30;;;;;;;44.67;31.50;;;15.00;99.90;;;;;;4936158;29;20546;-78
2023/04/28 10:46:00;;;;;;;39.90;29.93;;;15.10;99.90;;;;;;4933157;29;20256;-77
2023/04/28 10:48:33;;;;;;;39.10;28.70;;;15.30;99.90;;;;;;4934249;29;20205;-77
2023/04/28 10:51:04;;;;;;;37.60;27.60;;;15.50;99.90;;;;;;4933440;29;20212;-77
2023/04/28 10:53:47;;;;;;;36.10;26.92;;;15.70;99.90;;;;;;4933919;29;20202;-78
2023/04/28 10:56:24;;;;;;;37.50;29.60;;;15.70;99.90;;;;;;4935369;29;20232;-78
2023/04/28 10:58:51;;;;;;;35.60;27.92;;;15.80;99.90;;;;;;4935789;29;20249;-78
2023/04/28 11:01:21;;;;;;;38.30;27.30;;;15.70;99.90;;;;;;4934661;29;20244;-77
2023/04/28 11:03:59;;;;;;;36.30;28.42;;;15.70;99.90;;;;;;4930950;29;20285;-79
2023/04/28 11:06:35;;;;;;;35.08;27.15;;;15.70;99.90;;;;;;4939925;29;20211;-77
2023/04/28 11:09:14;;;;;;;34.90;28.52;;;15.60;99.90;;;;;;4935056;29;20201;-78
2023/04/28 11:11:54;;;;;;;35.97;27.20;;;15.60;99.90;;;;;;4933703;29;20296;-78
2023/04/28 11:14:21;;;;;;;34.17;26.27;;;15.50;99.90;;;;;;4940430;29;20247;-77
2023/04/28 11:17:00;;;;;;;36.07;28.43;;;15.50;99.90;;;;;;4936671;29;20233;-78
2023/04/28 11:19:38;;;;;;;34.40;27.80;;;15.40;99.90;;;;;;4937999;29;20296;-77
2023/04/28 11:22:20;;;;;;;36.40;26.75;;;15.40;99.90;;;;;;4930994;29;20264;-78
2023/04/28 11:24:58;;;;;;;35.27;26.30;;;15.40;99.90;;;;;;4931647;29;20201;-78
2023/04/28 11:27:26;;;;;;;35.80;27.73;;;15.40;99.90;;;;;;4931737;29;20260;-77
2023/04/28 11:29:53;;;;;;;35.03;27.00;;;15.40;99.90;;;;;;4913588;29;20232;-78
2023/04/28 11:32:29;;;;;;;35.53;28.20;;;15.40;99.90;;;;;;4929367;29;20427;-77
2023/04/28 11:34:56;;;;;;;38.23;27.07;;;15.50;99.90;;;;;;4913250;29;20284;-78
2023/04/28 11:37:22;;;;;;;36.33;27.20;;;15.50;99.90;;;;;;4932655;29;20201;-78
2023/04/28 11:39:50;;;;;;;39.30;27.88;;;15.50;99.90;;;;;;4932846;29;20313;-77
2023/04/28 11:42:17;;;;;;;40.83;31.40;;;15.60;99.90;;;;;;4932898;29;20570;-77
2023/04/28 11:44:51;;;;;;;35.73;28.63;;;15.60;99.90;;;;;;4933989;29;20612;-78
2023/04/28 11:47:30;;;;;;;36.67;27.40;;;15.60;99.90;;;;;;4929414;29;20204;-78
2023/04/28 11:49:57;;;;;;;36.70;27.85;;;15.70;99.90;;;;;;4930750;29;20214;-78
2023/04/28 11:52:26;;;;;;;33.90;27.55;;;15.70;99.90;;;;;;4933834;29;20285;-78
2023/04/28 11:54:58;;;;;;;38.00;27.27;;;15.70;99.90;;;;;;4933670;29;20216;-77
2023/04/28 11:57:26;;;;;;;33.73;25.77;;;15.80;99.90;;;;;;4923825;29;20215;-78
2023/04/28 11:59:53;;;;;;;39.93;26.70;;;15.80;99.90;;;;;;4933728;29;20339;-77
2023/04/28 12:02:27;;;;;;;29.47;24.63;;;15.80;99.90;;;;;;4933940;29;20284;-78
2023/04/28 12:04:55;;;;;;;30.23;23.83;;;15.80;99.90;;;;;;4932384;29;20219;-78
2023/04/28 12:07:23;;;;;;;31.15;24.65;;;15.90;99.90;;;;;;4917160;29;20201;-78
2023/04/28 12:10:14;;;;;;;33.28;23.60;;;16.00;99.90;;;;;;4912854;29;20221;-77
2023/04/28 12:12:41;;;;;;;27.00;21.83;;;16.00;99.90;;;;;;4931567;29;20664;-78
2023/04/28 12:15:19;;;;;;;28.40;21.45;;;16.00;99.90;;;;;;4931250;29;20287;-78
2023/04/28 12:17:47;;;;;;;25.60;20.70;;;15.90;99.90;;;;;;4928838;29;20224;-77
2023/04/28 12:20:35;;;;;;;24.50;20.00;;;16.00;99.90;;;;;;4913589;29;20279;-77
2023/04/28 12:23:02;;;;;;;26.88;20.77;;;16.00;99.90;;;;;;4930200;29;20355;-78
2023/04/28 12:25:29;;;;;;;23.52;20.45;;;16.00;99.90;;;;;;4932278;29;20240;-78
2023/04/28 12:28:04;;;;;;;26.58;19.25;;;16.10;99.90;;;;;;4931710;29;20300;-77
2023/04/28 12:30:33;;;;;;;25.95;19.55;;;16.10;99.90;;;;;;4932710;29;20228;-77
2023/04/28 12:33:00;;;;;;;19.55;16.55;;;16.20;99.90;;;;;;4933302;29;20256;-77
2023/04/28 12:35:28;;;;;;;18.73;16.42;;;16.30;99.90;;;;;;4932081;29;20212;-78
2023/04/28 12:37:57;;;;;;;19.80;16.55;;;16.40;99.90;;;;;;4914712;29;20225;-77
2023/04/28 12:40:24;;;;;;;18.77;15.77;;;16.50;99.90;;;;;;4932373;29;20658;-77
2023/04/28 12:42:51;;;;;;;17.13;15.07;;;16.50;99.90;;;;;;4932914;29;20300;-78
2023/04/28 12:45:18;;;;;;;15.40;13.38;;;16.60;99.90;;;;;;4933042;29;20308;-78